createdAt,value
2018-09-27T00:01:17.982Z,6.03
2018-09-27T00:03:47.008Z,4.93
2018-09-27T00:06:17.683Z,5.50
2018-09-27T00:08:46.700Z,6.30
2018-09-27T00:11:15.638Z,6.07
2018-09-27T00:13:44.593Z,6.90
2018-09-27T00:16:13.584Z,5.70
2018-09-27T00:18:42.620Z,6.60
2018-09-27T00:21:11.563Z,5.80
2018-09-27T00:23:40.495Z,5.30
2018-09-27T00:26:09.663Z,5.73
2018-09-27T00:28:38.666Z,5.73
2018-09-27T00:31:07.883Z,4.40
2018-09-27T00:33:36.965Z,4.70
2018-09-27T00:36:06.173Z,6.80
2018-09-27T00:38:35.623Z,5.60
2018-09-27T00:41:04.578Z,4.83
2018-09-27T00:43:33.387Z,5.60
2018-09-27T00:46:02.352Z,5.87
2018-09-27T00:48:31.350Z,4.50
2018-09-27T00:51:00.361Z,5.30
2018-09-27T00:53:32.881Z,5.23
2018-09-27T00:56:01.759Z,4.93
2018-09-27T00:58:30.789Z,6.50
2018-09-27T01:00:59.711Z,5.83
2018-09-27T01:03:28.744Z,6.30
2018-09-27T01:05:57.656Z,4.77
2018-09-27T01:08:26.611Z,5.53
2018-09-27T01:10:55.550Z,6.00
2018-09-27T01:13:24.379Z,4.60
2018-09-27T01:15:53.172Z,4.90
2018-09-27T01:18:22.068Z,4.73
2018-09-27T01:20:50.948Z,4.20
2018-09-27T01:23:19.836Z,4.73
2018-09-27T01:25:48.663Z,4.33
2018-09-27T01:28:17.473Z,5.07
2018-09-27T01:30:46.405Z,6.10
2018-09-27T01:33:15.289Z,5.40
2018-09-27T01:35:44.193Z,5.13
2018-09-27T01:38:13.120Z,6.43
2018-09-27T01:40:42.028Z,4.53
2018-09-27T01:43:10.945Z,5.00
2018-09-27T01:45:39.849Z,5.50
2018-09-27T01:48:08.715Z,5.03
2018-09-27T01:50:37.644Z,5.30
2018-09-27T01:53:06.679Z,4.97
2018-09-27T01:55:35.563Z,5.50
2018-09-27T01:58:04.584Z,5.40
2018-09-27T02:00:33.489Z,5.13
2018-09-27T02:03:02.282Z,4.90
2018-09-27T02:05:31.205Z,4.57
2018-09-27T02:08:00.204Z,4.50
2018-09-27T02:10:29.099Z,5.40
2018-09-27T02:12:58.150Z,6.10
2018-09-27T02:15:27.168Z,6.13
2018-09-27T02:17:56.032Z,4.47
2018-09-27T02:20:24.914Z,5.33
2018-09-27T02:22:53.834Z,6.50
2018-09-27T02:25:22.759Z,5.93
2018-09-27T02:27:51.574Z,5.53
2018-09-27T02:30:20.524Z,6.13
2018-09-27T02:32:49.461Z,4.00
2018-09-27T02:35:18.285Z,5.23
2018-09-27T02:37:47.240Z,6.10
2018-09-27T02:40:16.333Z,5.57
2018-09-27T02:42:45.345Z,7.10
2018-09-27T02:45:14.116Z,5.93
2018-09-27T02:47:44.647Z,4.87
2018-09-27T02:50:13.577Z,6.57
2018-09-27T02:52:42.502Z,5.33
2018-09-27T02:55:11.484Z,6.07
2018-09-27T02:57:40.507Z,5.30
2018-09-27T03:00:09.520Z,6.83
2018-09-27T03:02:38.369Z,5.37
2018-09-27T03:05:07.694Z,5.40
2018-09-27T03:07:36.650Z,6.43
2018-09-27T03:10:05.704Z,5.53
2018-09-27T03:12:34.528Z,4.97
2018-09-27T03:15:03.436Z,5.57
2018-09-27T03:17:32.415Z,7.30
2018-09-27T03:20:01.425Z,4.87
2018-09-27T03:22:30.395Z,5.10
2018-09-27T03:24:59.291Z,5.83
2018-09-27T03:27:28.265Z,5.93
2018-09-27T03:29:57.123Z,5.83
2018-09-27T03:32:25.922Z,4.43
2018-09-27T03:34:54.801Z,5.63
2018-09-27T03:37:23.727Z,6.47
2018-09-27T03:39:52.670Z,6.17
2018-09-27T03:42:21.433Z,6.27
2018-09-27T03:44:50.283Z,5.70
2018-09-27T03:47:19.132Z,6.47
2018-09-27T03:49:48.021Z,5.77
2018-09-27T03:52:16.869Z,5.53
2018-09-27T03:54:45.719Z,5.23
2018-09-27T03:57:14.714Z,6.17
2018-09-27T03:59:43.661Z,5.20
2018-09-27T04:02:12.565Z,6.50
2018-09-27T04:04:41.441Z,5.90
2018-09-27T04:07:10.388Z,5.20
2018-09-27T04:09:39.258Z,6.30
2018-09-27T04:12:08.267Z,4.63
2018-09-27T04:14:37.180Z,4.87
2018-09-27T04:17:06.143Z,6.33
2018-09-27T04:19:35.074Z,5.93
2018-09-27T04:22:04.068Z,6.27
2018-09-27T04:24:33.089Z,6.00
2018-09-27T04:27:01.988Z,5.50
2018-09-27T04:29:30.850Z,4.93
2018-09-27T04:31:59.729Z,6.10
2018-09-27T04:34:28.743Z,8.27
2018-09-27T04:36:57.705Z,6.10
2018-09-27T04:39:26.708Z,6.57
2018-09-27T04:41:55.733Z,6.13
2018-09-27T04:44:24.645Z,5.13
2018-09-27T04:46:53.605Z,5.33
2018-09-27T04:49:22.460Z,6.83
2018-09-27T04:51:51.465Z,5.63
2018-09-27T04:54:20.456Z,5.80
2018-09-27T04:56:49.307Z,5.50
2018-09-27T04:59:18.368Z,6.77
2018-09-27T05:01:47.365Z,6.03
2018-09-27T05:04:16.366Z,6.20
2018-09-27T05:06:45.224Z,5.47
2018-09-27T05:09:14.168Z,6.00
2018-09-27T05:11:43.122Z,6.27
2018-09-27T05:14:12.152Z,6.37
2018-09-27T05:16:41.089Z,6.50
2018-09-27T05:19:10.089Z,5.00
2018-09-27T05:21:39.086Z,6.50
2018-09-27T05:24:08.056Z,7.23
2018-09-27T05:26:36.990Z,5.07
2018-09-27T05:29:05.987Z,6.30
2018-09-27T05:31:34.863Z,4.80
2018-09-27T05:34:03.791Z,5.37
2018-09-27T05:36:32.733Z,6.57
2018-09-27T05:39:01.747Z,5.67
2018-09-27T05:41:30.615Z,5.13
2018-09-27T05:43:59.503Z,7.30
2018-09-27T05:46:28.371Z,5.70
2018-09-27T05:48:57.324Z,6.20
2018-09-27T05:51:26.179Z,7.40
2018-09-27T05:53:55.129Z,5.00
2018-09-27T05:56:24.139Z,5.07
2018-09-27T05:58:53.057Z,4.60
2018-09-27T06:01:21.884Z,5.80
2018-09-27T06:03:50.947Z,5.23
2018-09-27T06:06:19.899Z,5.23
2018-09-27T06:08:48.836Z,6.10
2018-09-27T06:11:17.694Z,6.03
2018-09-27T06:13:46.725Z,5.97
2018-09-27T06:16:15.705Z,5.03
2018-09-27T06:18:44.697Z,6.10
2018-09-27T06:21:13.687Z,6.90
2018-09-27T06:23:42.617Z,6.83
2018-09-27T06:26:11.765Z,5.90
2018-09-27T06:28:40.729Z,6.70
2018-09-27T06:31:09.864Z,7.43
2018-09-27T06:33:38.891Z,5.93
2018-09-27T06:36:08.179Z,5.83
2018-09-27T06:38:37.285Z,5.50
2018-09-27T06:41:06.262Z,7.03
2018-09-27T06:43:35.329Z,8.20
2018-09-27T06:46:04.287Z,8.17
2018-09-27T06:48:33.237Z,7.30
2018-09-27T06:51:02.314Z,6.60
2018-09-27T06:53:31.169Z,7.17
2018-09-27T06:56:00.193Z,6.53
2018-09-27T06:58:29.057Z,7.00
2018-09-27T07:00:57.976Z,6.53
2018-09-27T07:03:26.816Z,6.90
2018-09-27T07:05:55.848Z,7.73
2018-09-27T07:08:24.823Z,7.83
2018-09-27T07:10:53.771Z,7.93
2018-09-27T07:13:22.708Z,7.63
2018-09-27T07:15:51.585Z,8.37
2018-09-27T07:18:20.511Z,8.50
2018-09-27T07:20:49.574Z,7.27
2018-09-27T07:23:18.573Z,6.27
2018-09-27T07:25:47.551Z,8.70
2018-09-27T07:28:16.449Z,7.57
2018-09-27T07:30:45.343Z,8.40
2018-09-27T07:33:15.428Z,8.50
2018-09-27T07:35:44.325Z,8.40
2018-09-27T07:38:13.435Z,12.07
2018-09-27T07:40:42.349Z,8.10
2018-09-27T07:43:13.453Z,9.33
2018-09-27T07:45:42.468Z,9.50
2018-09-27T07:48:11.459Z,7.63
2018-09-27T07:50:40.522Z,7.40
2018-09-27T07:53:10.409Z,8.90
2018-09-27T07:55:39.398Z,8.30
2018-09-27T07:58:08.475Z,9.37
2018-09-27T08:00:37.465Z,7.93
2018-09-27T08:03:06.463Z,8.70
2018-09-27T08:05:35.400Z,8.97
2018-09-27T08:08:04.316Z,8.07
2018-09-27T08:10:33.346Z,8.13
2018-09-27T08:13:03.520Z,9.70
2018-09-27T08:15:32.511Z,10.57
2018-09-27T08:18:01.419Z,9.00
2018-09-27T08:20:30.357Z,9.10
2018-09-27T08:22:59.220Z,8.57
2018-09-27T08:25:28.185Z,10.70
2018-09-27T08:27:57.096Z,13.30
2018-09-27T08:30:25.985Z,10.43
2018-09-27T08:32:54.958Z,9.27
2018-09-27T08:35:23.873Z,9.27
2018-09-27T08:37:52.989Z,11.03
2018-09-27T08:40:22.013Z,10.27
2018-09-27T08:42:51.072Z,10.90
2018-09-27T08:45:20.250Z,10.33
2018-09-27T08:47:49.155Z,10.73
2018-09-27T08:50:18.123Z,13.30
2018-09-27T08:52:47.048Z,11.87
2018-09-27T08:55:17.011Z,10.50
2018-09-27T08:57:45.943Z,12.27
2018-09-27T09:00:14.937Z,12.20
2018-09-27T09:02:43.886Z,12.03
2018-09-27T09:05:13.914Z,10.67
2018-09-27T09:07:42.936Z,10.67
2018-09-27T09:10:12.007Z,11.53
2018-09-27T09:12:41.060Z,12.57
2018-09-27T09:15:11.953Z,12.70
2018-09-27T09:17:40.976Z,11.50
2018-09-27T09:20:10.025Z,13.17
2018-09-27T09:22:39.047Z,11.60
2018-09-27T09:25:08.162Z,13.37
2018-09-27T09:27:37.167Z,13.97
2018-09-27T09:30:06.125Z,12.73
2018-09-27T09:32:35.043Z,13.70
2018-09-27T09:35:04.049Z,13.00
2018-09-27T09:37:32.902Z,15.13
2018-09-27T09:40:01.725Z,12.80
2018-09-27T09:42:30.684Z,15.07
2018-09-27T09:45:00.684Z,14.17
2018-09-27T09:47:29.708Z,12.43
2018-09-27T09:49:58.719Z,13.90
2018-09-27T09:52:27.611Z,12.27
2018-09-27T09:54:58.745Z,11.47
2018-09-27T09:57:27.661Z,12.23
2018-09-27T09:59:56.560Z,11.63
2018-09-27T10:02:25.571Z,10.87
2018-09-27T10:04:55.625Z,16.20
2018-09-27T10:07:24.628Z,11.77
2018-09-27T10:09:53.561Z,10.40
2018-09-27T10:12:22.546Z,11.13
2018-09-27T10:14:52.569Z,11.13
2018-09-27T10:17:21.530Z,9.60
2018-09-27T10:19:50.482Z,11.63
2018-09-27T10:22:19.383Z,10.33
2018-09-27T10:24:49.459Z,10.67
2018-09-27T10:27:18.401Z,10.20
2018-09-27T10:29:47.676Z,10.83
2018-09-27T10:32:16.633Z,10.47
2018-09-27T10:34:45.675Z,10.70
2018-09-27T10:37:14.482Z,10.73
2018-09-27T10:39:43.583Z,8.70
2018-09-27T10:42:12.642Z,11.00
2018-09-27T10:44:42.767Z,9.63
2018-09-27T10:47:11.731Z,9.77
2018-09-27T10:49:40.826Z,11.40
2018-09-27T10:52:09.779Z,11.70
2018-09-27T10:54:39.896Z,9.03
2018-09-27T10:57:08.822Z,10.83
2018-09-27T10:59:37.868Z,9.87
2018-09-27T11:02:07.037Z,9.60
2018-09-27T11:04:36.081Z,10.33
2018-09-27T11:07:05.018Z,10.13
2018-09-27T11:09:33.935Z,12.47
2018-09-27T11:12:02.925Z,9.57
2018-09-27T11:14:33.103Z,10.77
2018-09-27T11:17:02.107Z,9.93
2018-09-27T11:19:31.107Z,11.93
2018-09-27T11:22:00.141Z,9.20
2018-09-27T11:24:29.037Z,10.50
2018-09-27T11:26:58.016Z,11.20
2018-09-27T11:29:32.059Z,10.83
2018-09-27T11:32:05.936Z,9.20
2018-09-27T11:34:35.103Z,11.20
2018-09-27T11:37:04.155Z,10.37
2018-09-27T11:39:33.057Z,11.73
2018-09-27T11:42:01.958Z,9.10
2018-09-27T11:44:30.918Z,10.33
2018-09-27T11:46:59.814Z,12.20
2018-09-27T11:49:28.907Z,10.10
2018-09-27T11:51:57.734Z,10.90
2018-09-27T11:54:25.557Z,8.20
2018-09-27T11:56:54.609Z,8.23
2018-09-27T11:59:23.528Z,7.23
2018-09-27T12:01:52.425Z,9.90
2018-09-27T12:04:21.373Z,9.47
2018-09-27T12:06:50.246Z,9.10
2018-09-27T12:09:19.224Z,9.80
2018-09-27T12:11:48.180Z,9.07
2018-09-27T12:14:17.197Z,8.20
2018-09-27T12:16:46.297Z,9.47
2018-09-27T12:19:15.182Z,10.00
2018-09-27T12:21:44.222Z,10.30
2018-09-27T12:24:13.353Z,9.03
2018-09-27T12:26:42.440Z,9.20
2018-09-27T12:29:11.343Z,6.00
2018-09-27T12:31:40.337Z,7.13
2018-09-27T12:34:09.344Z,7.60
2018-09-27T12:36:40.492Z,5.67
2018-09-27T12:39:11.197Z,6.80
2018-09-27T12:41:40.308Z,5.97
2018-09-27T12:44:09.387Z,6.27
2018-09-27T12:46:40.456Z,9.40
2018-09-27T12:49:09.497Z,5.70
2018-09-27T12:51:38.428Z,5.90
2018-09-27T12:54:07.297Z,10.63
2018-09-27T12:56:36.309Z,6.07
2018-09-27T12:59:05.289Z,7.57
2018-09-27T13:01:34.320Z,7.13
2018-09-27T13:04:03.253Z,7.20
2018-09-27T13:06:32.288Z,7.87
2018-09-27T13:09:01.336Z,7.33
2018-09-27T13:11:30.272Z,5.70
2018-09-27T13:13:59.201Z,7.83
2018-09-27T13:16:29.212Z,8.27
2018-09-27T13:18:58.287Z,9.90
2018-09-27T13:21:27.413Z,8.10
2018-09-27T13:23:56.539Z,7.00
2018-09-27T13:26:25.592Z,8.50
2018-09-27T13:28:54.469Z,9.20
2018-09-27T13:31:23.466Z,7.53
2018-09-27T13:33:52.445Z,8.57
2018-09-27T13:36:21.371Z,6.73
2018-09-27T13:38:50.436Z,6.57
2018-09-27T13:41:19.490Z,6.17
2018-09-27T13:43:48.454Z,6.90
2018-09-27T13:46:18.432Z,5.40
2018-09-27T13:48:47.429Z,9.70
2018-09-27T13:51:16.479Z,5.73
2018-09-27T13:53:45.391Z,5.80
2018-09-27T13:56:14.412Z,5.67
2018-09-27T13:58:43.452Z,5.83
2018-09-27T14:01:12.434Z,6.37
2018-09-27T14:03:41.415Z,5.70
2018-09-27T14:06:15.408Z,4.47
2018-09-27T14:08:44.489Z,4.83
2018-09-27T14:11:13.463Z,4.10
2018-09-27T14:13:42.390Z,4.60
2018-09-27T14:16:11.531Z,4.90
2018-09-27T14:18:40.389Z,6.07
2018-09-27T14:21:09.301Z,5.10
2018-09-27T14:23:38.225Z,4.60
2018-09-27T14:26:15.861Z,4.80
2018-09-27T14:28:44.796Z,4.17
2018-09-27T14:31:13.645Z,3.97
2018-09-27T14:33:42.547Z,6.33
2018-09-27T14:36:11.476Z,4.60
2018-09-27T14:38:40.613Z,5.57
2018-09-27T14:41:09.688Z,5.60
2018-09-27T14:43:38.646Z,7.47
2018-09-27T14:46:07.719Z,3.90
2018-09-27T14:48:36.671Z,5.23
2018-09-27T14:51:05.566Z,4.37
2018-09-27T14:53:34.569Z,6.43
2018-09-27T14:56:03.595Z,4.77
2018-09-27T14:58:32.611Z,5.50
2018-09-27T15:01:01.548Z,5.40
2018-09-27T15:03:30.593Z,4.80
2018-09-27T15:05:59.445Z,4.80
2018-09-27T15:08:30.529Z,4.60
2018-09-27T15:10:59.507Z,4.73
2018-09-27T15:13:28.541Z,7.63
2018-09-27T15:15:57.507Z,5.40
2018-09-27T15:18:26.569Z,5.73
2018-09-27T15:20:55.474Z,4.60
2018-09-27T15:23:24.485Z,4.33
2018-09-27T15:25:53.354Z,5.10
2018-09-27T15:28:23.380Z,6.47
2018-09-27T15:30:52.464Z,9.00
2018-09-27T15:33:21.349Z,5.50
2018-09-27T15:35:50.149Z,6.97
2018-09-27T15:38:26.484Z,5.50
2018-09-27T15:40:55.339Z,6.00
2018-09-27T15:43:24.342Z,7.83
2018-09-27T15:45:53.295Z,6.17
2018-09-27T15:48:22.256Z,6.90
2018-09-27T15:50:51.132Z,7.00
2018-09-27T15:53:19.993Z,6.87
2018-09-27T15:55:49.103Z,8.00
2018-09-27T15:58:18.012Z,7.00
2018-09-27T16:00:47.106Z,7.60
2018-09-27T16:03:16.078Z,11.90
2018-09-27T16:05:45.030Z,7.90
2018-09-27T16:08:14.109Z,8.87
2018-09-27T16:10:42.948Z,8.83
2018-09-27T16:13:11.840Z,8.73
2018-09-27T16:17:14.457Z,8.00
2018-09-27T16:19:43.323Z,8.37
2018-09-27T16:22:12.153Z,7.27
2018-09-27T16:24:41.392Z,8.00
2018-09-27T16:27:10.385Z,8.20
2018-09-27T16:29:39.394Z,7.10
2018-09-27T16:32:08.391Z,8.00
2018-09-27T16:34:37.382Z,8.03
2018-09-27T16:37:06.431Z,7.13
2018-09-27T16:39:35.398Z,9.07
2018-09-27T16:42:04.659Z,7.17
2018-09-27T16:44:33.943Z,7.97
2018-09-27T16:47:03.167Z,8.90
2018-09-27T16:49:32.383Z,6.90
2018-09-27T16:52:01.556Z,6.63
2018-09-27T16:54:30.710Z,8.13
2018-09-27T16:56:59.915Z,6.67
2018-09-27T16:59:29.131Z,8.37
2018-09-27T17:01:58.576Z,6.80
2018-09-27T17:04:27.879Z,6.47
2018-09-27T17:06:57.297Z,6.93
2018-09-27T17:09:26.484Z,5.20
2018-09-27T17:11:55.633Z,6.10
2018-09-27T17:14:24.928Z,7.20
2018-09-27T17:16:54.297Z,5.90
2018-09-27T17:19:23.492Z,5.77
2018-09-27T17:21:52.795Z,5.40
2018-09-27T17:24:22.195Z,7.60
2018-09-27T17:26:51.593Z,6.00
2018-09-27T17:29:20.959Z,5.90
2018-09-27T17:31:50.289Z,5.80
2018-09-27T17:34:19.691Z,4.80
2018-09-27T17:36:49.037Z,6.63
2018-09-27T17:39:18.489Z,5.43
2018-09-27T17:41:47.910Z,7.33
2018-09-27T17:44:17.372Z,5.70
2018-09-27T17:46:46.965Z,6.77
2018-09-27T17:49:16.323Z,5.73
2018-09-27T17:51:45.792Z,5.77
2018-09-27T17:54:15.194Z,7.53
2018-09-27T17:56:44.632Z,6.83
2018-09-27T17:59:14.648Z,6.90
2018-09-27T18:01:44.202Z,5.93
2018-09-27T18:04:13.565Z,5.10
2018-09-27T18:06:42.936Z,5.30
2018-09-27T18:09:13.498Z,5.70
2018-09-27T18:11:43.157Z,6.60
2018-09-27T18:14:12.665Z,6.03
2018-09-27T18:16:42.101Z,5.60
2018-09-27T18:19:11.557Z,8.83
2018-09-27T18:21:41.062Z,7.10
2018-09-27T18:24:10.548Z,5.57
2018-09-27T18:26:40.066Z,7.07
2018-09-27T18:29:09.432Z,7.00
2018-09-27T18:31:39.167Z,6.47
2018-09-27T18:34:08.615Z,6.33
2018-09-27T18:36:38.012Z,6.67
2018-09-27T18:39:10.496Z,7.63
2018-09-27T18:41:39.998Z,6.20
2018-09-27T18:44:09.836Z,5.47
2018-09-27T18:46:39.579Z,7.87
2018-09-27T18:49:09.698Z,6.30
2018-09-27T18:51:40.118Z,7.50
2018-09-27T18:54:09.591Z,7.03
2018-09-27T18:56:38.997Z,8.13
2018-09-27T18:59:09.084Z,7.73
2018-09-27T19:01:38.737Z,7.40
2018-09-27T19:04:08.265Z,7.67
2018-09-27T19:06:37.700Z,8.00
2018-09-27T19:09:10.207Z,6.33
2018-09-27T19:11:40.017Z,6.77
2018-09-27T19:14:09.498Z,7.07
2018-09-27T19:16:39.297Z,6.40
2018-09-27T19:19:09.852Z,7.40
2018-09-27T19:21:40.287Z,6.67
2018-09-27T19:24:09.637Z,6.30
2018-09-27T19:26:39.152Z,7.70
2018-09-27T19:29:08.725Z,7.27
2018-09-27T19:31:38.612Z,6.57
2018-09-27T19:34:08.161Z,6.37
2018-09-27T19:36:37.697Z,5.80
2018-09-27T19:39:09.377Z,5.57
2018-09-27T19:41:39.058Z,6.53
2018-09-27T19:44:08.712Z,7.07
2018-09-27T19:46:38.122Z,6.60
2018-09-27T19:49:07.621Z,7.90
2018-09-27T19:51:37.048Z,7.03
2018-09-27T19:54:06.642Z,6.87
2018-09-27T19:56:36.037Z,6.23
2018-09-27T19:59:05.570Z,6.47
2018-09-27T20:01:35.036Z,6.77
2018-09-27T20:04:04.474Z,6.40
2018-09-27T20:06:34.764Z,6.00
2018-09-27T20:09:07.421Z,6.13
2018-09-27T20:11:37.828Z,8.93
2018-09-27T20:14:07.627Z,6.83
2018-09-27T20:16:37.351Z,7.60
2018-09-27T20:19:08.024Z,7.63
2018-09-27T20:21:38.127Z,7.80
2018-09-27T20:24:08.756Z,8.23
2018-09-27T20:26:38.244Z,8.13
2018-09-27T20:29:07.909Z,8.10
2018-09-27T20:31:37.565Z,9.67
2018-09-27T20:34:07.155Z,8.93
2018-09-27T20:36:36.677Z,9.20
2018-09-27T20:39:06.808Z,9.50
2018-09-27T20:41:36.472Z,8.97
2018-09-27T20:44:05.948Z,8.73
2018-09-27T20:46:35.407Z,6.90
2018-09-27T20:49:04.920Z,7.70
2018-09-27T20:51:34.409Z,9.53
2018-09-27T20:54:03.963Z,8.50
2018-09-27T20:56:33.871Z,7.83
2018-09-27T20:59:03.312Z,8.00
2018-09-27T21:01:32.754Z,9.47
2018-09-27T21:04:02.159Z,9.10
2018-09-27T21:06:31.549Z,8.10
2018-09-27T21:09:02.972Z,10.67
2018-09-27T21:11:32.376Z,13.30
2018-09-27T21:14:01.753Z,11.00
2018-09-27T21:16:30.867Z,11.77
2018-09-27T21:18:59.940Z,13.00
2018-09-27T21:21:28.948Z,13.70
2018-09-27T21:23:58.019Z,14.30
2018-09-27T21:26:27.086Z,14.67
2018-09-27T21:28:57.037Z,11.77
2018-09-27T21:31:25.931Z,15.30
2018-09-27T21:33:54.946Z,18.47
2018-09-27T21:36:24.185Z,15.70
2018-09-27T21:38:54.271Z,17.40
2018-09-27T21:41:23.273Z,16.23
2018-09-27T21:43:52.368Z,14.97
2018-09-27T21:46:21.265Z,17.13
2018-09-27T21:48:50.219Z,16.37
2018-09-27T21:51:19.239Z,16.67
2018-09-27T21:53:48.327Z,17.40
2018-09-27T21:56:17.357Z,15.20
2018-09-27T21:58:46.253Z,13.57
2018-09-27T22:01:15.142Z,14.20
2018-09-27T22:03:44.015Z,14.50
2018-09-27T22:06:13.005Z,17.10
2018-09-27T22:08:42.009Z,13.90
2018-09-27T22:11:11.108Z,13.47
2018-09-27T22:13:40.003Z,13.00
2018-09-27T22:16:08.984Z,16.07
2018-09-27T22:18:38.903Z,15.47
2018-09-27T22:21:07.988Z,15.40
2018-09-27T22:23:36.971Z,12.47
2018-09-27T22:26:05.973Z,15.90
2018-09-27T22:28:35.308Z,15.87
2018-09-27T22:31:04.257Z,15.90
2018-09-27T22:33:33.167Z,15.60
2018-09-27T22:36:02.094Z,14.23
2018-09-27T22:38:32.368Z,14.80
2018-09-27T22:41:01.416Z,15.93
2018-09-27T22:43:30.360Z,15.10
2018-09-27T22:45:59.263Z,19.67
2018-09-27T22:48:28.057Z,20.90
2018-09-27T22:50:57.267Z,18.40
2018-09-27T22:53:26.300Z,18.23
2018-09-27T22:55:55.232Z,18.60
2018-09-27T22:58:24.068Z,20.93
2018-09-27T23:00:53.324Z,21.70
2018-09-27T23:03:22.296Z,17.07
2018-09-27T23:05:51.621Z,19.53
2018-09-27T23:08:20.600Z,17.10
2018-09-27T23:10:49.774Z,19.40
2018-09-27T23:13:18.603Z,17.77
2018-09-27T23:15:47.582Z,17.60
2018-09-27T23:18:16.416Z,18.10
2018-09-27T23:20:45.344Z,17.40
2018-09-27T23:23:14.189Z,15.00
2018-09-27T23:25:43.029Z,17.97
2018-09-27T23:28:11.966Z,19.00
2018-09-27T23:30:40.957Z,18.67
2018-09-27T23:33:09.778Z,19.97
2018-09-27T23:35:38.632Z,22.20
2018-09-27T23:38:07.538Z,23.40
2018-09-27T23:40:36.464Z,21.30
2018-09-27T23:43:05.676Z,21.80
2018-09-27T23:45:34.649Z,21.50
2018-09-27T23:48:03.497Z,21.67
2018-09-27T23:50:32.674Z,19.77
2018-09-27T23:53:01.564Z,17.03
2018-09-27T23:55:30.576Z,20.50
2018-09-27T23:57:59.599Z,17.60
